sensor_id;sensor_type;location;lat;lon;timestamp;P1;durP1;ratioP1;P2;durP2;ratioP2
10769;SDS011;5437;50.852;4.438;2022-12-18T00:00:30;31.02;;;19.35;;
10769;SDS011;5437;50.852;4.438;2022-12-18T00:02:57;33.00;;;19.30;;
10769;SDS011;5437;50.852;4.438;2022-12-18T00:05:23;32.65;;;20.92;;
10769;SDS011;5437;50.852;4.438;2022-12-18T00:07:49;33.67;;;19.42;;
10769;SDS011;5437;50.852;4.438;2022-12-18T00:10:15;29.73;;;18.15;;
10769;SDS011;5437;50.852;4.438;2022-12-18T00:12:41;28.98;;;18.90;;
10769;SDS011;5437;50.852;4.438;2022-12-18T00:15:07;27.30;;;17.77;;
10769;SDS011;5437;50.852;4.438;2022-12-18T00:17:33;30.95;;;19.05;;
10769;SDS011;5437;50.852;4.438;2022-12-18T00:19:59;30.05;;;18.48;;
10769;SDS011;5437;50.852;4.438;2022-12-18T00:22:25;32.75;;;18.50;;
10769;SDS011;5437;50.852;4.438;2022-12-18T00:24:51;27.80;;;17.08;;
10769;SDS011;5437;50.852;4.438;2022-12-18T00:27:17;29.20;;;18.05;;
10769;SDS011;5437;50.852;4.438;2022-12-18T00:29:43;30.90;;;18.15;;
10769;SDS011;5437;50.852;4.438;2022-12-18T00:32:09;30.83;;;17.95;;
10769;SDS011;5437;50.852;4.438;2022-12-18T00:34:35;27.65;;;16.83;;
10769;SDS011;5437;50.852;4.438;2022-12-18T00:37:03;25.00;;;16.95;;
10769;SDS011;5437;50.852;4.438;2022-12-18T00:39:29;28.80;;;16.90;;
10769;SDS011;5437;50.852;4.438;2022-12-18T00:41:55;28.92;;;16.25;;
10769;SDS011;5437;50.852;4.438;2022-12-18T00:44:40;25.83;;;16.95;;
10769;SDS011;5437;50.852;4.438;2022-12-18T00:47:06;29.20;;;17.17;;
10769;SDS011;5437;50.852;4.438;2022-12-18T00:49:32;25.70;;;16.90;;
10769;SDS011;5437;50.852;4.438;2022-12-18T00:51:58;27.20;;;16.00;;
10769;SDS011;5437;50.852;4.438;2022-12-18T00:54:24;28.67;;;16.58;;
10769;SDS011;5437;50.852;4.438;2022-12-18T00:56:50;25.00;;;15.50;;
10769;SDS011;5437;50.852;4.438;2022-12-18T00:59:17;24.52;;;15.82;;
10769;SDS011;5437;50.852;4.438;2022-12-18T01:01:43;25.85;;;15.43;;
10769;SDS011;5437;50.852;4.438;2022-12-18T01:04:09;28.20;;;16.38;;
10769;SDS011;5437;50.852;4.438;2022-12-18T01:06:35;26.23;;;14.90;;
10769;SDS011;5437;50.852;4.438;2022-12-18T01:09:01;24.45;;;15.45;;
10769;SDS011;5437;50.852;4.438;2022-12-18T01:11:28;23.88;;;16.27;;
10769;SDS011;5437;50.852;4.438;2022-12-18T01:13:54;24.30;;;14.95;;
10769;SDS011;5437;50.852;4.438;2022-12-18T01:16:20;23.55;;;15.68;;
10769;SDS011;5437;50.852;4.438;2022-12-18T01:18:46;24.77;;;14.90;;
10769;SDS011;5437;50.852;4.438;2022-12-18T01:21:14;22.60;;;14.93;;
10769;SDS011;5437;50.852;4.438;2022-12-18T01:23:41;23.60;;;15.45;;
10769;SDS011;5437;50.852;4.438;2022-12-18T01:26:08;26.88;;;15.52;;
10769;SDS011;5437;50.852;4.438;2022-12-18T01:28:35;23.38;;;15.00;;
10769;SDS011;5437;50.852;4.438;2022-12-18T01:31:15;25.15;;;14.95;;
10769;SDS011;5437;50.852;4.438;2022-12-18T01:33:41;23.52;;;14.52;;
10769;SDS011;5437;50.852;4.438;2022-12-18T01:36:08;22.67;;;14.77;;
10769;SDS011;5437;50.852;4.438;2022-12-18T01:38:34;24.90;;;14.60;;
10769;SDS011;5437;50.852;4.438;2022-12-18T01:41:00;23.65;;;14.20;;
10769;SDS011;5437;50.852;4.438;2022-12-18T01:46:08;23.30;;;13.88;;
10769;SDS011;5437;50.852;4.438;2022-12-18T01:48:35;21.27;;;13.75;;
10769;SDS011;5437;50.852;4.438;2022-12-18T01:51:01;20.17;;;13.82;;
10769;SDS011;5437;50.852;4.438;2022-12-18T01:53:27;22.95;;;14.10;;
10769;SDS011;5437;50.852;4.438;2022-12-18T01:55:55;21.05;;;13.02;;
10769;SDS011;5437;50.852;4.438;2022-12-18T01:58:30;21.40;;;13.45;;
10769;SDS011;5437;50.852;4.438;2022-12-18T02:00:58;20.00;;;13.00;;
10769;SDS011;5437;50.852;4.438;2022-12-18T02:03:24;19.85;;;13.00;;
10769;SDS011;5437;50.852;4.438;2022-12-18T02:13:38;20.90;;;12.60;;
10769;SDS011;5437;50.852;4.438;2022-12-18T02:16:17;22.10;;;13.35;;
10769;SDS011;5437;50.852;4.438;2022-12-18T02:18:45;20.48;;;13.27;;
10769;SDS011;5437;50.852;4.438;2022-12-18T02:21:26;20.58;;;13.13;;
10769;SDS011;5437;50.852;4.438;2022-12-18T02:26:50;21.83;;;13.45;;
10769;SDS011;5437;50.852;4.438;2022-12-18T02:29:18;24.60;;;13.68;;
10769;SDS011;5437;50.852;4.438;2022-12-18T02:31:53;20.23;;;13.32;;
10769;SDS011;5437;50.852;4.438;2022-12-18T02:34:21;21.40;;;13.32;;
10769;SDS011;5437;50.852;4.438;2022-12-18T02:36:48;21.10;;;12.75;;
10769;SDS011;5437;50.852;4.438;2022-12-18T02:39:15;19.85;;;12.90;;
10769;SDS011;5437;50.852;4.438;2022-12-18T02:41:42;23.58;;;13.27;;
10769;SDS011;5437;50.852;4.438;2022-12-18T02:44:09;21.92;;;13.63;;
10769;SDS011;5437;50.852;4.438;2022-12-18T02:50:17;22.45;;;13.52;;
10769;SDS011;5437;50.852;4.438;2022-12-18T02:57:48;20.42;;;12.55;;
10769;SDS011;5437;50.852;4.438;2022-12-18T03:00:18;24.05;;;13.88;;
10769;SDS011;5437;50.852;4.438;2022-12-18T03:02:53;20.98;;;13.40;;
10769;SDS011;5437;50.852;4.438;2022-12-18T03:05:35;20.55;;;13.32;;
10769;SDS011;5437;50.852;4.438;2022-12-18T03:08:03;19.83;;;12.60;;
10769;SDS011;5437;50.852;4.438;2022-12-18T03:10:32;21.75;;;13.10;;
10769;SDS011;5437;50.852;4.438;2022-12-18T03:13:04;21.63;;;13.55;;
10769;SDS011;5437;50.852;4.438;2022-12-18T03:15:33;22.45;;;13.50;;
10769;SDS011;5437;50.852;4.438;2022-12-18T03:18:04;21.17;;;13.15;;
